GMML

Hassan I Airport

El Aaiún, Western Sahara
METAR GMML 211300Z 01020KT 8000 NSC 28/17 Q1014 NOSIG
Observed Flight Rules
Jul-21 @ 13:00 UTC (55 minutes ago) Marginal Visual Flight Rules
Wind Visibility Clouds
10° at 20 knots 7,998 meters
  • Clear skies
Temperatures Readings
Current 28°C / 82°F
Dewpoint 17°C / 63°F
Humidity 51%
Altimeter 29.94" Hg
Pressure 1014 hPa
Elevation 6
METAR GMML 211300Z 01020KT 8000 NSC 28/17 Q1014 NOSIG
Observed Flight Rules
Jul-21 @ 13:00 UTC
(55 minutes ago)
MVFR
Wind Visibility
10° at 20 knots 7,998 meters
Clouds
  • Clear skies
Temperature Dewpoint
28°C / 82°F 17°C / 63°F
Humidity Altimeter Pressure
51% 29.94" Hg 1014 hPa